Time;durP1;ratioP1;P1;durP2;ratioP2;P2;SDS_P1;SDS_P2;PMS_P1;PMS_P2;Temp;Humidity;BMP_temperature;BMP_pressure;BME280_temperature;BME280_humidity;BME280_pressure;Samples;Min_cycle;Max_cycle;Signal;HPM_P1;HPM_P2
2022/08/21 00:01:20;;;;;;;11.50;8.70;;;;;;;18.62;91.84;96212.79;108558;1268;22656;-78
2022/08/21 00:03:49;;;;;;;12.50;8.60;;;;;;;18.64;91.63;96208.11;108546;1268;22643;-78
2022/08/21 00:06:19;;;;;;;12.00;9.10;;;;;;;18.64;91.66;96203.19;108501;1266;22549;-78
2022/08/21 00:08:48;;;;;;;13.10;8.80;;;;;;;18.63;91.61;96205.15;108390;1267;59878;-78
2022/08/21 00:11:18;;;;;;;10.80;8.90;;;;;;;18.61;91.52;96196.95;108458;1268;22587;-78
2022/08/21 00:13:50;;;;;;;11.40;8.80;;;;;;;18.61;91.41;96196.13;108528;1267;22480;-78
2022/08/21 00:16:18;;;;;;;12.00;9.20;;;;;;;18.63;91.36;96192.63;108544;1268;22703;-78
2022/08/21 00:18:46;;;;;;;12.20;8.50;;;;;;;18.63;91.18;96192.83;108487;1267;34973;-78
2022/08/21 00:21:16;;;;;;;12.00;8.70;;;;;;;18.64;91.23;96186.38;108561;1268;22671;-78
2022/08/21 00:23:45;;;;;;;12.00;8.70;;;;;;;18.63;91.13;96186.88;108568;1268;22539;-79
2022/08/21 00:26:13;;;;;;;13.50;9.20;;;;;;;18.59;91.02;96188.70;108532;1267;22627;-78
2022/08/21 00:28:42;;;;;;;11.60;8.90;;;;;;;18.56;91.06;96189.19;108437;1268;23730;-79
2022/08/21 00:31:10;;;;;;;12.30;9.20;;;;;;;18.56;91.16;96184.89;108489;1267;22708;-79
2022/08/21 00:33:39;;;;;;;11.40;8.90;;;;;;;18.54;91.04;96180.22;108560;1268;25376;-79
2022/08/21 00:36:10;;;;;;;11.30;9.10;;;;;;;18.49;91.01;96173.27;108509;1267;24251;-79
2022/08/21 00:38:38;;;;;;;12.50;8.90;;;;;;;18.49;91.04;96170.52;108468;1267;30982;-79
2022/08/21 00:41:10;;;;;;;13.00;9.00;;;;;;;18.49;91.05;96172.67;108507;1268;22534;-78
2022/08/21 00:43:40;;;;;;;11.30;8.10;;;;;;;18.49;91.04;96173.80;108527;1268;25423;-78
2022/08/21 00:46:08;;;;;;;11.10;9.00;;;;;;;18.46;91.02;96171.66;108556;1268;25247;-78
2022/08/21 00:48:37;;;;;;;10.50;8.20;;;;;;;18.45;90.90;96166.89;108430;1268;28059;-78
2022/08/21 00:51:10;;;;;;;9.70;8.60;;;;;;;18.44;90.91;96170.05;108538;1268;22474;-78
2022/08/21 00:53:42;;;;;;;12.70;8.70;;;;;;;18.41;90.98;96169.89;108453;1267;22544;-78
2022/08/21 00:56:12;;;;;;;13.00;8.90;;;;;;;18.39;91.34;96169.14;108471;1267;23724;-78
2022/08/21 00:58:43;;;;;;;12.10;9.70;;;;;;;18.33;91.61;96162.02;108508;1268;23581;-78
2022/08/21 01:01:11;;;;;;;11.60;9.00;;;;;;;18.32;91.86;96158.15;108548;1268;22650;-78
2022/08/21 01:03:42;;;;;;;11.20;8.60;;;;;;;18.34;91.99;96159.36;108540;1268;22653;-78
2022/08/21 01:06:10;;;;;;;9.70;8.40;;;;;;;18.37;92.10;96164.50;108561;1268;22539;-78
2022/08/21 01:08:39;;;;;;;11.40;9.10;;;;;;;18.35;92.00;96160.46;108358;1266;99711;-78
2022/08/21 01:11:08;;;;;;;10.60;9.30;;;;;;;18.31;92.16;96162.88;108555;1268;22534;-78
2022/08/21 01:13:46;;;;;;;10.10;8.20;;;;;;;18.32;92.23;96160.90;108436;1267;22691;-78
2022/08/21 01:16:19;;;;;;;13.10;8.70;;;;;;;18.35;92.27;96152.70;108582;1267;22559;-78
2022/08/21 01:18:49;;;;;;;11.00;8.60;;;;;;;18.37;92.15;96150.09;108473;1268;29985;-78
2022/08/21 01:21:20;;;;;;;10.30;8.40;;;;;;;18.40;91.92;96149.85;108561;1268;23857;-78
2022/08/21 01:23:52;;;;;;;11.40;8.50;;;;;;;18.42;91.78;96148.52;108467;1267;22530;-78
2022/08/21 01:26:24;;;;;;;12.60;8.90;;;;;;;18.41;91.64;96142.98;108521;1268;22572;-78
2022/08/21 01:28:59;;;;;;;12.90;9.40;;;;;;;18.35;91.63;96139.61;108452;1265;37592;-78
2022/08/21 01:31:31;;;;;;;11.90;9.30;;;;;;;18.29;91.62;96133.27;108469;1268;23716;-78
2022/08/21 01:34:00;;;;;;;11.70;8.60;;;;;;;18.25;91.78;96129.94;108521;1268;22552;-78
2022/08/21 01:36:29;;;;;;;11.00;8.40;;;;;;;18.19;92.02;96127.70;108545;1268;22686;-78
2022/08/21 01:38:58;;;;;;;9.20;8.00;;;;;;;18.14;92.27;96128.38;108468;1268;32844;-78
2022/08/21 01:41:26;;;;;;;11.20;8.90;;;;;;;18.08;92.46;96121.48;108545;1268;25109;-78
2022/08/21 01:43:55;;;;;;;11.10;8.10;;;;;;;18.03;92.52;96124.78;108486;1268;22561;-78
2022/08/21 01:46:23;;;;;;;10.50;8.10;;;;;;;17.99;92.53;96125.94;108552;1265;22549;-78
2022/08/21 01:48:52;;;;;;;10.60;8.20;;;;;;;17.99;92.70;96124.93;108480;1268;31194;-78
2022/08/21 01:51:20;;;;;;;9.20;7.80;;;;;;;17.98;92.70;96128.52;108540;1268;22485;-78
2022/08/21 01:53:49;;;;;;;10.00;8.30;;;;;;;17.91;92.64;96128.33;108504;1268;22719;-78
2022/08/21 01:56:18;;;;;;;10.80;8.00;;;;;;;17.81;92.76;96131.30;108474;1268;22539;-78
2022/08/21 01:58:48;;;;;;;10.60;8.70;;;;;;;17.70;93.02;96129.41;108475;1268;38649;-78
2022/08/21 02:01:16;;;;;;;9.80;8.30;;;;;;;17.67;93.43;96125.62;108568;1268;22533;-78
2022/08/21 02:03:45;;;;;;;11.10;8.00;;;;;;;17.68;93.63;96124.16;108565;1268;23785;-78
2022/08/21 02:06:17;;;;;;;10.70;8.40;;;;;;;17.71;93.70;96119.09;108544;1268;22486;-78
2022/08/21 02:08:47;;;;;;;9.10;7.30;;;;;;;17.74;93.72;96120.89;108475;1268;25873;-78
2022/08/21 02:11:16;;;;;;;12.20;8.20;;;;;;;17.76;93.71;96117.44;108567;1268;24401;-78
2022/08/21 02:13:44;;;;;;;9.10;7.80;;;;;;;17.72;93.50;96112.23;108517;1267;22834;-78
2022/08/21 02:16:15;;;;;;;9.90;8.60;;;;;;;17.68;93.73;96106.91;108505;1267;22482;-78
2022/08/21 02:18:45;;;;;;;9.60;7.70;;;;;;;17.71;93.83;96107.08;108495;1268;36758;-78
2022/08/21 02:21:13;;;;;;;11.40;8.10;;;;;;;17.72;93.73;96100.59;108500;1268;22523;-78
2022/08/21 02:23:42;;;;;;;8.40;7.50;;;;;;;17.76;93.75;96100.75;108584;1267;22530;-78
2022/08/21 02:26:13;;;;;;;11.10;8.00;;;;;;;17.78;93.52;96100.36;108490;1267;23318;-78
2022/08/21 02:28:42;;;;;;;9.90;7.80;;;;;;;17.77;93.32;96094.48;108456;1267;38787;-78
2022/08/21 02:31:11;;;;;;;9.20;7.40;;;;;;;17.74;93.20;96094.86;108534;1266;25465;-78
2022/08/21 02:33:40;;;;;;;11.00;7.80;;;;;;;17.75;93.08;96093.13;108566;1268;22487;-78
2022/08/21 02:36:11;;;;;;;11.60;8.10;;;;;;;17.78;92.86;96092.70;108557;1268;22529;-78
2022/08/21 02:38:41;;;;;;;9.30;7.60;;;;;;;17.82;92.57;96092.33;108499;1266;28395;-78
2022/08/21 02:41:10;;;;;;;;;;;;;;;17.79;92.32;96089.81;108537;1268;22485;-78
2022/08/21 02:43:39;;;;;;;10.20;7.80;;;;;;;17.76;92.34;96089.64;108464;1266;22485;-78
2022/08/21 02:46:09;;;;;;;13.50;8.60;;;;;;;17.77;92.48;96093.41;108470;1267;22575;-78
2022/08/21 02:48:39;;;;;;;10.40;7.90;;;;;;;17.76;92.57;96087.80;108471;1267;29202;-78
2022/08/21 02:51:10;;;;;;;11.20;8.80;;;;;;;17.72;92.55;96087.44;108566;1268;23381;-78
2022/08/21 02:53:39;;;;;;;10.30;8.80;;;;;;;17.68;92.50;96088.75;108497;1267;23999;-78
2022/08/21 02:56:09;;;;;;;9.40;8.30;;;;;;;17.67;92.51;96088.02;108546;1268;25956;-78
2022/08/21 02:58:41;;;;;;;12.90;7.70;;;;;;;17.70;92.44;96081.92;108466;1268;26240;-78
2022/08/21 03:01:10;;;;;;;11.80;8.70;;;;;;;17.67;92.10;96083.89;108553;1267;24294;-78
2022/08/21 03:03:40;;;;;;;11.80;8.40;;;;;;;17.66;92.09;96081.19;108486;1267;22478;-78
2022/08/21 03:06:11;;;;;;;11.70;8.00;;;;;;;17.68;91.79;96083.86;108569;1267;22559;-78
2022/08/21 03:08:40;;;;;;;10.70;7.90;;;;;;;17.70;91.68;96083.15;108500;1266;28301;-78
2022/08/21 03:11:09;;;;;;;9.90;8.00;;;;;;;17.69;91.61;96082.20;108512;1265;22699;-78
2022/08/21 03:13:38;;;;;;;12.50;9.00;;;;;;;17.65;91.54;96080.77;108537;1267;24228;-78
2022/08/21 03:16:08;;;;;;;10.80;8.10;;;;;;;17.66;91.59;96085.08;108460;1267;24192;-78
2022/08/21 03:18:36;;;;;;;10.00;8.10;;;;;;;17.63;91.48;96088.44;108457;1268;30145;-78
2022/08/21 03:21:06;;;;;;;10.50;8.20;;;;;;;17.62;91.59;96088.80;108543;1268;24254;-78
2022/08/21 03:23:34;;;;;;;11.00;8.40;;;;;;;17.60;91.44;96090.40;108559;1267;23924;-78
2022/08/21 03:26:03;;;;;;;9.50;8.50;;;;;;;17.47;91.19;96091.13;108524;1267;22480;-78
2022/08/21 03:28:32;;;;;;;10.40;9.10;;;;;;;17.30;91.56;96095.23;108478;1268;33760;-78
2022/08/21 03:31:01;;;;;;;13.10;9.80;;;;;;;17.17;91.91;96096.77;108578;1266;24157;-78
2022/08/21 03:33:29;;;;;;;14.20;10.80;;;;;;;17.10;92.32;96098.45;108529;1267;25904;-78
2022/08/21 03:36:01;;;;;;;14.50;10.80;;;;;;;17.11;92.88;96100.33;108464;1267;22579;-78
2022/08/21 03:38:31;;;;;;;11.80;10.50;;;;;;;17.13;93.03;96097.25;108479;1267;41043;-78
2022/08/21 03:40:59;;;;;;;;;;;;;;;17.14;93.13;96099.03;108598;1268;25210;-78
2022/08/21 03:43:29;;;;;;;13.60;10.80;;;;;;;17.09;93.16;96098.25;108547;1268;23064;-78
2022/08/21 03:45:57;;;;;;;12.50;10.60;;;;;;;17.03;93.37;96102.04;108572;1268;22530;-78
2022/08/21 03:48:26;;;;;;;12.20;9.90;;;;;;;17.02;93.68;96102.06;108444;1268;25560;-78
2022/08/21 03:50:55;;;;;;;12.90;9.30;;;;;;;17.08;94.21;96100.84;108526;1268;22501;-78
2022/08/21 03:53:23;;;;;;;11.40;8.90;;;;;;;17.17;94.42;96103.04;108471;1268;22554;-78
2022/08/21 03:55:53;;;;;;;11.40;10.00;;;;;;;17.21;94.42;96106.77;108531;1267;22474;-78
2022/08/21 03:58:25;;;;;;;11.90;9.30;;;;;;;17.21;94.31;96110.31;108503;1267;32260;-78
2022/08/21 04:00:57;;;;;;;10.40;8.40;;;;;;;17.23;94.27;96112.48;108589;1267;24111;-78
2022/08/21 04:03:26;;;;;;;10.60;8.40;;;;;;;17.28;94.46;96112.96;108528;1268;22638;-78
2022/08/21 04:05:55;;;;;;;10.80;9.20;;;;;;;17.35;94.48;96110.89;108562;1268;22533;-78
2022/08/21 04:08:24;;;;;;;10.60;9.10;;;;;;;17.37;94.39;96113.49;108483;1267;37855;-78
2022/08/21 04:10:57;;;;;;;11.70;9.00;;;;;;;17.46;94.49;96114.53;108546;1266;24219;-78
2022/08/21 04:13:28;;;;;;;15.20;11.20;;;;;;;17.57;94.23;96112.59;108560;1268;22579;-78
2022/08/21 04:15:58;;;;;;;13.40;12.00;;;;;;;17.63;93.97;96116.08;108524;1267;22496;-78
2022/08/21 04:18:27;;;;;;;15.10;12.60;;;;;;;17.72;93.82;96118.45;108501;1268;25269;-78
2022/08/21 04:21:00;;;;;;;15.20;13.00;;;;;;;17.72;93.74;96120.36;108517;1268;22565;-78
2022/08/21 04:23:29;;;;;;;19.20;14.10;;;;;;;17.72;93.77;96115.30;108551;1268;22681;-78
2022/08/21 04:25:58;;;;;;;17.80;14.20;;;;;;;17.78;94.00;96117.19;108546;1267;22526;-78
2022/08/21 04:28:28;;;;;;;17.80;14.00;;;;;;;17.86;94.10;96115.84;108521;1267;24981;-78
2022/08/21 04:30:57;;;;;;;17.60;13.40;;;;;;;18.05;94.39;96111.40;108481;1268;22654;-78
2022/08/21 04:33:26;;;;;;;15.20;12.30;;;;;;;18.36;94.52;96111.95;108548;1266;23940;-78
2022/08/21 04:35:55;;;;;;;15.60;11.40;;;;;;;18.65;93.97;96112.39;108557;1267;23123;-78
2022/08/21 04:38:23;;;;;;;14.70;10.50;;;;;;;18.90;93.27;96113.54;108408;1265;34954;-78
2022/08/21 04:40:53;;;;;;;13.90;10.90;;;;;;;19.22;93.00;96112.08;108605;1267;23947;-78
2022/08/21 04:43:23;;;;;;;13.30;9.70;;;;;;;19.63;92.03;96114.63;108539;1267;22600;-78
2022/08/21 04:45:52;;;;;;;13.30;9.30;;;;;;;19.92;90.57;96114.13;108479;1268;22850;-78
2022/08/21 04:48:23;;;;;;;10.50;8.70;;;;;;;20.31;90.22;96114.15;108507;1267;27021;-78
2022/08/21 04:50:56;;;;;;;9.70;8.10;;;;;;;20.78;89.32;96114.50;108609;1268;22563;-78
2022/08/21 04:53:30;;;;;;;11.50;8.40;;;;;;;21.14;88.03;96114.57;108525;1267;25041;-78
2022/08/21 04:56:04;;;;;;;11.90;9.20;;;;;;;21.38;86.27;96119.23;108555;1267;22545;-78
2022/08/21 04:58:34;;;;;;;11.30;9.40;;;;;;;21.59;85.80;96115.88;108560;1268;23480;-79
2022/08/21 05:01:07;;;;;;;12.60;10.10;;;;;;;21.95;85.27;96120.14;108586;1266;25421;-79
2022/08/21 05:03:40;;;;;;;11.30;8.90;;;;;;;22.36;84.11;96116.80;108572;1268;23387;-78
2022/08/21 05:06:13;;;;;;;13.10;9.10;;;;;;;22.68;82.95;96116.96;108577;1268;25381;-78
2022/08/21 05:08:43;;;;;;;11.90;8.70;;;;;;;22.96;81.83;96111.68;108398;1267;38356;-79
2022/08/21 05:11:11;;;;;;;;;;;;;;;23.44;81.21;96116.08;108594;1268;24261;-79
2022/08/21 05:13:41;;;;;;;12.50;9.50;;;;;;;23.87;79.98;96119.46;108609;1268;22591;-79
2022/08/21 05:16:09;;;;;;;14.90;9.20;;;;;;;24.25;78.29;96118.95;108512;1268;22774;-79
2022/08/21 05:18:38;;;;;;;11.40;9.40;;;;;;;24.24;76.53;96122.42;108500;1268;24462;-79
2022/08/21 05:21:07;;;;;;;11.40;9.20;;;;;;;24.28;76.10;96123.84;108592;1268;22472;-79
2022/08/21 05:23:36;;;;;;;11.60;8.70;;;;;;;24.50;76.12;96129.23;108571;1267;23854;-79
2022/08/21 05:26:04;;;;;;;10.60;7.90;;;;;;;24.94;75.69;96128.89;108567;1268;24261;-80
2022/08/21 05:28:33;;;;;;;11.50;8.20;;;;;;;25.36;74.46;96129.31;108509;1268;30320;-80
2022/08/21 05:31:02;;;;;;;9.80;8.60;;;;;;;25.84;73.47;96134.63;108464;1268;22572;-81
2022/08/21 05:33:33;;;;;;;11.30;9.10;;;;;;;26.37;72.28;96132.55;108609;1268;23788;-80
2022/08/21 05:36:03;;;;;;;14.80;10.70;;;;;;;27.10;71.17;96131.03;108593;1268;22563;-80
2022/08/21 05:38:32;;;;;;;11.10;9.90;;;;;;;27.59;69.26;96128.03;108499;1267;30548;-80
2022/08/21 05:41:01;;;;;;;14.20;10.60;;;;;;;28.15;68.07;96124.85;108590;1268;24711;-81
2022/08/21 05:43:32;;;;;;;15.60;12.60;;;;;;;28.59;64.87;96126.43;108559;1268;22474;-81
2022/08/21 05:46:01;;;;;;;14.10;11.50;;;;;;;28.19;63.41;96125.36;108579;1266;24846;-81
2022/08/21 05:48:32;;;;;;;15.40;11.40;;;;;;;27.29;62.22;96131.02;108532;1267;41320;-78
2022/08/21 05:51:06;;;;;;;14.80;10.90;;;;;;;26.53;63.11;96133.52;108572;1267;22634;-78
2022/08/21 05:53:35;;;;;;;12.90;10.80;;;;;;;26.17;63.84;96133.98;108584;1268;22488;-81
2022/08/21 05:56:04;;;;;;;14.10;11.50;;;;;;;25.87;64.00;96134.80;108611;1266;23711;-80
2022/08/21 05:58:35;;;;;;;13.40;10.90;;;;;;;25.62;64.69;96127.78;108488;1268;27688;-80
2022/08/21 06:01:04;;;;;;;14.20;12.10;;;;;;;25.49;65.05;96132.97;108589;1267;22491;-81
2022/08/21 06:03:34;;;;;;;16.30;11.80;;;;;;;25.27;65.35;96136.96;108596;1267;22672;-80
2022/08/21 06:06:02;;;;;;;;;;;;;;;24.81;65.35;96142.93;108538;1267;23710;-80
2022/08/21 06:08:31;;;;;;;17.20;12.20;;;;;;;24.50;66.09;96146.20;108535;1267;23881;-81
2022/08/21 06:11:02;;;;;;;15.10;13.10;;;;;;;24.18;66.76;96140.50;108598;1267;23047;-73
2022/08/21 06:13:41;;;;;;;15.30;12.50;;;;;;;24.01;67.41;96141.70;108573;1267;22522;-78
2022/08/21 06:16:12;;;;;;;15.20;12.50;;;;;;;23.88;68.19;96140.20;108614;1268;23891;-80
2022/08/21 06:18:41;;;;;;;15.80;12.60;;;;;;;23.89;68.58;96139.98;108472;1268;37118;-77
2022/08/21 06:21:11;;;;;;;17.10;13.40;;;;;;;23.81;68.90;96141.86;108619;1268;22654;-75
2022/08/21 06:23:40;;;;;;;17.80;13.00;;;;;;;23.74;69.19;96144.73;108579;1268;22627;-81
2022/08/21 06:26:14;;;;;;;17.60;14.90;;;;;;;23.89;69.46;96143.01;108533;1268;23362;-80
2022/08/21 06:28:43;;;;;;;18.70;15.20;;;;;;;24.02;69.45;96140.30;108402;1268;48536;-77
2022/08/21 06:31:15;;;;;;;18.70;15.50;;;;;;;23.93;68.74;96142.56;108558;1268;22566;-73
2022/08/21 06:33:44;;;;;;;16.90;14.90;;;;;;;23.65;69.24;96138.64;108548;1268;22569;-81
2022/08/21 06:36:13;;;;;;;19.00;14.90;;;;;;;23.62;69.81;96135.20;108554;1268;22474;-75
2022/08/21 06:38:42;;;;;;;17.20;15.40;;;;;;;23.52;69.65;96139.98;108548;1268;49201;-80
2022/08/21 06:41:11;;;;;;;19.60;15.40;;;;;;;23.49;70.00;96140.93;108700;1267;22543;-80
2022/08/21 06:43:40;;;;;;;18.20;15.10;;;;;;;23.58;70.18;96138.96;108584;1268;22566;-80
2022/08/21 06:46:12;;;;;;;20.20;14.70;;;;;;;23.70;69.98;96137.90;108581;1268;23638;-79
2022/08/21 06:48:41;;;;;;;17.10;14.70;;;;;;;23.80;69.84;96134.97;108499;1267;41306;-80
2022/08/21 06:51:10;;;;;;;19.40;15.90;;;;;;;23.85;70.06;96133.23;108580;1268;23234;-81
2022/08/21 06:53:39;;;;;;;21.40;16.10;;;;;;;23.83;69.69;96136.93;108600;1268;22551;-81
2022/08/21 06:56:08;;;;;;;21.10;16.00;;;;;;;23.82;70.06;96134.45;108588;1268;22554;-82
2022/08/21 06:58:37;;;;;;;21.90;16.00;;;;;;;23.76;69.74;96135.57;108511;1267;41437;-80
2022/08/21 07:01:06;;;;;;;18.60;15.00;;;;;;;23.41;69.91;96134.06;108549;1268;22673;-80
2022/08/21 07:03:37;;;;;;;17.70;15.50;;;;;;;23.31;70.72;96135.05;108544;1268;23801;-80
2022/08/21 07:06:08;;;;;;;18.50;14.60;;;;;;;23.39;70.98;96136.92;108532;1268;22552;-80
2022/08/21 07:08:39;;;;;;;18.30;15.90;;;;;;;23.25;70.93;96140.56;108515;1267;28562;-80
2022/08/21 07:11:15;;;;;;;18.50;14.70;;;;;;;23.16;71.41;96138.31;108509;1267;23361;-79
2022/08/21 07:13:44;;;;;;;17.70;14.30;;;;;;;23.08;71.48;96137.45;108536;1267;25474;-80
2022/08/21 07:16:13;;;;;;;22.00;15.40;;;;;;;23.04;71.74;96137.64;108549;1266;25408;-79
2022/08/21 07:18:42;;;;;;;;;;;;;;;22.97;72.16;96137.49;108524;1268;29710;-79
2022/08/21 07:21:11;;;;;;;19.80;16.30;;;;;;;22.99;72.20;96137.66;108583;1268;23723;-80
2022/08/21 07:23:43;;;;;;;19.00;15.70;;;;;;;22.97;72.24;96140.66;108582;1268;23124;-80
2022/08/21 07:26:13;;;;;;;17.90;14.80;;;;;;;23.01;72.70;96140.85;108529;1267;22566;-80
2022/08/21 07:28:43;;;;;;;18.50;15.80;;;;;;;23.06;72.35;96141.90;108530;1268;28969;-80
2022/08/21 07:31:15;;;;;;;17.80;15.80;;;;;;;23.12;72.68;96142.37;108619;1268;22611;-80
2022/08/21 07:33:46;;;;;;;17.40;14.10;;;;;;;23.18;72.67;96145.42;108615;1268;23911;-80
2022/08/21 07:36:15;;;;;;;19.30;15.40;;;;;;;23.11;72.20;96149.15;108611;1268;22601;-80
2022/08/21 07:38:45;;;;;;;19.30;15.50;;;;;;;23.05;72.75;96150.47;108514;1268;30208;-80
2022/08/21 07:41:17;;;;;;;19.90;15.90;;;;;;;23.02;72.81;96145.02;108607;1268;22566;-80
2022/08/21 07:43:46;;;;;;;18.30;15.80;;;;;;;22.86;72.94;96151.19;108523;1268;22551;-80
2022/08/21 07:46:15;;;;;;;23.00;16.50;;;;;;;22.83;73.20;96149.30;108492;1268;22559;-80
2022/08/21 07:48:44;;;;;;;19.70;15.90;;;;;;;22.82;73.25;96154.77;108536;1268;25310;-80
2022/08/21 07:51:15;;;;;;;18.80;15.90;;;;;;;22.57;73.41;96156.90;108548;1268;22562;-80
2022/08/21 07:53:49;;;;;;;20.60;17.20;;;;;;;22.34;73.95;96157.21;108486;1267;25261;-80
2022/08/21 07:56:20;;;;;;;21.60;17.80;;;;;;;22.27;74.38;96156.65;108540;1268;24263;-80
2022/08/21 07:58:49;;;;;;;20.70;16.70;;;;;;;22.16;74.95;96154.18;108498;1267;25967;-80
2022/08/21 08:01:22;;;;;;;23.60;18.40;;;;;;;21.96;75.46;96157.41;108530;1268;25978;-80
2022/08/21 08:03:51;;;;;;;22.10;18.40;;;;;;;21.71;76.53;96153.55;108506;1268;22542;-80
2022/08/21 08:06:21;;;;;;;22.60;17.90;;;;;;;21.62;77.56;96146.77;108532;1268;22634;-80
2022/08/21 08:08:50;;;;;;;24.70;19.00;;;;;;;21.59;77.57;96146.48;108384;1268;40052;-80
2022/08/21 08:11:20;;;;;;;23.60;19.10;;;;;;;21.54;78.09;96149.27;108552;1268;24231;-80
2022/08/21 08:13:53;;;;;;;22.00;18.00;;;;;;;21.43;78.53;96149.45;108417;1268;22534;-80
2022/08/21 08:16:26;;;;;;;26.10;18.90;;;;;;;21.24;78.92;96143.56;108621;1268;22651;-80
2022/08/21 08:18:57;;;;;;;22.20;18.00;;;;;;;21.09;79.60;96143.89;108447;1268;37655;-80
2022/08/21 08:21:28;;;;;;;24.30;19.50;;;;;;;21.05;79.86;96148.66;108582;1268;22574;-80
2022/08/21 08:23:58;;;;;;;23.90;19.30;;;;;;;21.05;80.18;96148.52;108495;1268;22475;-80
2022/08/21 08:26:29;;;;;;;23.00;17.40;;;;;;;21.11;80.48;96150.01;108462;1268;22558;-80
2022/08/21 08:28:59;;;;;;;25.30;21.90;;;;;;;21.22;80.55;96152.20;108436;1268;43137;-80
2022/08/21 08:31:29;;;;;;;24.70;20.40;;;;;;;21.22;80.25;96149.73;108557;1268;22705;-80
2022/08/21 08:33:59;;;;;;;27.90;22.70;;;;;;;21.25;80.65;96146.67;108563;1268;25343;-80
2022/08/21 08:36:36;;;;;;;23.90;19.60;;;;;;;21.28;80.71;96151.36;108551;1267;22572;-80
2022/08/21 08:39:07;;;;;;;20.90;18.70;;;;;;;21.31;80.86;96150.79;108389;1267;31053;-80
2022/08/21 08:41:38;;;;;;;22.90;19.00;;;;;;;21.36;80.55;96151.71;108516;1267;22602;-79
2022/08/21 08:44:08;;;;;;;23.60;18.90;;;;;;;21.44;80.64;96151.94;108589;1268;23301;-79
2022/08/21 08:46:41;;;;;;;;;;;;;;;21.49;80.30;96152.23;108589;1268;22533;-80
2022/08/21 08:49:15;;;;;;;25.70;18.90;;;;;;;21.52;80.44;96150.45;108475;1268;44287;-80
2022/08/21 08:51:50;;;;;;;23.60;21.00;;;;;;;21.60;80.48;96151.21;108540;1268;22576;-80
2022/08/21 08:54:31;;;;;;;30.20;22.20;;;;;;;21.61;80.50;96151.46;108547;1268;23874;-80
2022/08/21 08:57:03;;;;;;;27.30;21.60;;;;;;;21.69;80.65;96156.06;108583;1268;23495;-80
2022/08/21 08:59:40;;;;;;;24.20;20.30;;;;;;;21.75;80.65;96155.38;108447;1268;32934;-80
2022/08/21 09:02:12;;;;;;;26.30;23.00;;;;;;;21.80;80.49;96155.83;108564;1268;22591;-80
2022/08/21 09:04:44;;;;;;;29.20;24.10;;;;;;;21.64;80.50;96151.59;108620;1268;22461;-80
2022/08/21 09:07:20;;;;;;;38.30;27.40;;;;;;;21.49;81.13;96148.77;108511;1267;24382;-80
2022/08/21 09:10:02;;;;;;;35.80;27.70;;;;;;;21.27;81.90;96146.16;108459;1267;24185;-79
2022/08/21 09:12:40;;;;;;;32.80;26.70;;;;;;;21.10;82.78;96145.13;108544;1268;24161;-80
2022/08/21 09:15:21;;;;;;;33.80;26.50;;;;;;;21.11;83.36;96147.14;108519;1268;23973;-80
2022/08/21 09:18:12;;;;;;;30.90;27.40;;;;;;;21.19;83.70;96145.06;108504;1268;28102;-79
2022/08/21 09:20:55;;;;;;;34.30;28.50;;;;;;;21.23;83.81;96143.76;108474;1268;22543;-80
2022/08/21 09:23:37;;;;;;;34.60;26.30;;;;;;;21.26;83.86;96142.99;108559;1267;22650;-80
2022/08/21 09:26:13;;;;;;;34.90;29.00;;;;;;;21.19;84.17;96140.54;108494;1267;25076;-80
2022/08/21 09:28:43;;;;;;;34.50;28.10;;;;;;;21.10;84.48;96142.89;108447;1268;42091;-80
2022/08/21 09:31:25;;;;;;;39.10;29.50;;;;;;;21.02;84.83;96137.45;108444;1268;23911;-80
2022/08/21 09:34:02;;;;;;;35.40;26.80;;;;;;;20.95;85.35;96136.39;108381;1268;24102;-80
2022/08/21 09:36:37;;;;;;;35.70;28.30;;;;;;;20.95;85.81;96132.77;108551;1268;25209;-79
2022/08/21 09:39:07;;;;;;;39.30;30.20;;;;;;;20.93;85.91;96134.42;108378;1267;30038;-79
2022/08/21 09:41:38;;;;;;;40.00;30.20;;;;;;;20.91;86.20;96134.85;108505;1268;23919;-79
2022/08/21 09:44:09;;;;;;;41.40;31.30;;;;;;;20.94;86.82;96129.50;108556;1268;22557;-79
2022/08/21 09:46:38;;;;;;;41.00;29.50;;;;;;;20.90;87.09;96130.98;108558;1267;25263;-79
2022/08/21 09:49:07;;;;;;;37.50;30.20;;;;;;;20.88;87.59;96127.86;108373;1268;24848;-79
2022/08/21 09:51:38;;;;;;;37.90;31.00;;;;;;;20.92;87.95;96125.23;108455;1268;22530;-79
2022/08/21 09:54:18;;;;;;;40.90;30.60;;;;;;;20.97;88.21;96127.48;108576;1268;24182;-80
2022/08/21 10:00:11;;;;;;;44.00;35.10;;;;;;;21.20;88.77;96128.68;108435;1268;54001;-80
2022/08/21 10:02:40;;;;;;;41.10;32.80;;;;;;;21.22;88.47;96128.17;108606;1268;22524;-80
2022/08/21 10:05:23;;;;;;;44.20;33.50;;;;;;;21.24;88.53;96130.85;108537;1268;24205;-80
2022/08/21 10:07:53;;;;;;;46.40;33.50;;;;;;;21.31;88.34;96131.98;108399;1267;43824;-80
2022/08/21 10:10:24;;;;;;;41.30;32.00;;;;;;;21.27;88.13;96130.68;108449;1268;23453;-80
2022/08/21 10:13:04;;;;;;;43.10;32.80;;;;;;;21.20;88.41;96129.98;108557;1268;22695;-79
2022/08/21 10:15:47;;;;;;;46.40;34.80;;;;;;;21.09;88.63;96131.73;108537;1268;22550;-79
2022/08/21 10:18:25;;;;;;;42.40;33.40;;;;;;;20.97;89.10;96131.64;108477;1268;29942;-80
2022/08/21 10:21:02;;;;;;;47.10;35.40;;;;;;;20.95;89.49;96136.38;108588;1268;22533;-79
2022/08/21 10:23:50;;;;;;;42.60;32.70;;;;;;;20.95;89.60;96137.74;108540;1268;22468;-79
2022/08/21 10:26:35;;;;;;;39.60;30.60;;;;;;;20.92;89.74;96136.79;108453;1268;22503;-79
2022/08/21 10:29:15;;;;;;;41.20;30.10;;;;;;;20.97;89.89;96132.42;108476;1268;34653;-80
2022/08/21 10:31:54;;;;;;;40.60;31.60;;;;;;;21.04;90.11;96127.94;107404;1268;1540034;-80
2022/08/21 10:34:35;;;;;;;39.60;31.10;;;;;;;21.14;90.23;96128.96;108545;1268;22646;-80
2022/08/21 10:37:19;;;;;;;38.00;30.30;;;;;;;21.20;89.77;96128.92;108576;1268;22575;-79
2022/08/21 10:40:02;;;;;;;38.30;32.80;;;;;;;21.16;89.57;96128.30;108542;1267;25890;-80
2022/08/21 10:42:40;;;;;;;41.80;35.00;;;;;;;21.14;90.03;96128.27;108527;1268;23232;-80
2022/08/21 10:45:25;;;;;;;42.00;34.50;;;;;;;21.20;90.03;96133.23;108541;1268;22654;-79
2022/08/21 10:48:01;;;;;;;40.10;31.40;;;;;;;21.22;90.02;96134.64;108474;1268;32353;-79
2022/08/21 10:50:38;;;;;;;45.20;32.60;;;;;;;21.22;90.22;96135.10;108546;1268;23977;-80
2022/08/21 10:53:33;;;;;;;42.80;31.90;;;;;;;21.15;90.00;96138.77;108546;1268;22585;-79
2022/08/21 10:56:13;;;;;;;39.40;31.30;;;;;;;21.08;90.13;96140.85;108551;1268;23902;-79
2022/08/21 10:58:51;;;;;;;36.40;30.00;;;;;;;21.07;90.19;96137.45;108481;1268;25235;-79
2022/08/21 11:01:27;;;;;;;43.50;31.10;;;;;;;21.03;90.22;96137.08;108548;1268;22545;-80
2022/08/21 11:04:12;;;;;;;39.40;32.70;;;;;;;21.00;90.61;96140.58;108571;1268;22660;-80
2022/08/21 11:06:47;;;;;;;44.00;33.80;;;;;;;21.02;90.73;96137.91;108536;1268;22574;-80
2022/08/21 11:09:20;;;;;;;35.00;29.70;;;;;;;21.02;90.84;96135.45;108462;1268;32889;-80
2022/08/21 11:11:55;;;;;;;38.30;31.90;;;;;;;21.04;90.84;96134.63;108525;1268;22734;-79
2022/08/21 11:14:35;;;;;;;41.40;32.80;;;;;;;21.03;90.91;96130.30;108574;1268;22709;-79
2022/08/21 11:17:12;;;;;;;39.10;30.90;;;;;;;21.05;90.87;96128.71;108562;1268;22597;-80
2022/08/21 11:19:46;;;;;;;37.30;29.70;;;;;;;21.07;90.70;96129.66;108485;1268;25116;-80
2022/08/21 11:22:26;;;;;;;37.80;32.70;;;;;;;21.16;91.01;96128.77;108547;1268;22465;-80
2022/08/21 11:25:01;;;;;;;34.10;29.90;;;;;;;21.19;90.41;96124.81;108450;1268;22715;-80
2022/08/21 11:27:39;;;;;;;33.80;29.10;;;;;;;21.12;90.47;96127.77;108544;1268;22631;-80
2022/08/21 11:30:11;;;;;;;33.10;28.70;;;;;;;21.14;90.62;96128.42;108549;1268;22593;-80
2022/08/21 11:33:02;;;;;;;37.80;29.00;;;;;;;21.20;90.43;96129.45;108537;1268;25467;-80
2022/08/21 11:35:39;;;;;;;35.30;27.60;;;;;;;21.28;90.56;96135.35;108551;1268;23774;-80
2022/08/21 11:38:22;;;;;;;28.40;23.20;;;;;;;21.23;90.04;96130.20;108482;1268;29917;-79